Time;durP1;ratioP1;P1;durP2;ratioP2;P2;SDS_P1;SDS_P2;PMS_P1;PMS_P2;Temp;Humidity;BMP_temperature;BMP_pressure;BME280_temperature;BME280_humidity;BME280_pressure;Samples;Min_cycle;Max_cycle;Signal;HPM_P1;HPM_P2
2021/06/26 00:03:39;;;;;;;2.47;2.27;;;20.10;44.10;;;;;;10501106;28;20232;-74
2021/06/26 00:08:43;;;;;;;2.67;2.47;;;20.10;44.00;;;;;;10484167;28;20767;-75
2021/06/26 00:13:47;;;;;;;4.67;2.87;;;20.10;44.00;;;;;;10492189;28;20730;-75
2021/06/26 00:18:50;;;;;;;2.70;2.50;;;20.00;43.80;;;;;;10492126;28;20723;-75
2021/06/26 00:23:55;;;;;;;2.97;2.73;;;20.00;43.80;;;;;;10491952;28;20231;-73
2021/06/26 00:28:58;;;;;;;2.70;2.50;;;19.90;43.60;;;;;;10489942;28;20218;-74
2021/06/26 00:34:02;;;;;;;5.33;2.53;;;19.90;43.80;;;;;;10485968;28;20252;-75
2021/06/26 00:39:06;;;;;;;3.97;2.37;;;19.80;43.70;;;;;;10490856;28;20219;-75
2021/06/26 00:44:10;;;;;;;3.00;2.57;;;19.80;43.80;;;;;;10499649;28;20235;-75
2021/06/26 00:49:13;;;;;;;3.97;2.50;;;19.80;43.90;;;;;;10497583;28;20220;-75
2021/06/26 00:54:18;;;;;;;2.70;2.50;;;19.70;43.90;;;;;;10482309;28;20228;-75
2021/06/26 00:59:22;;;;;;;3.27;2.10;;;19.80;43.90;;;;;;10482360;28;20213;-74
2021/06/26 01:04:25;;;;;;;3.30;2.27;;;19.70;44.60;;;;;;10504409;28;20232;-73
2021/06/26 01:09:30;;;;;;;2.43;2.23;;;19.70;43.90;;;;;;10498669;28;20688;-74
2021/06/26 01:14:33;;;;;;;4.57;2.80;;;19.60;43.90;;;;;;10484508;28;20228;-74
2021/06/26 01:19:37;;;;;;;2.83;2.40;;;19.60;43.60;;;;;;10489914;28;20250;-75
2021/06/26 01:24:41;;;;;;;3.10;2.80;;;19.50;43.60;;;;;;10490062;28;20246;-75
2021/06/26 01:29:49;;;;;;;3.83;2.30;;;19.50;43.60;;;;;;10489876;28;20583;-75
2021/06/26 01:34:52;;;;;;;3.83;1.77;;;19.40;43.80;;;;;;10489668;28;20224;-75
2021/06/26 01:39:57;;;;;;;3.63;2.30;;;19.30;43.60;;;;;;10497562;28;20224;-75
2021/06/26 01:45:00;;;;;;;3.90;2.30;;;19.30;44.00;;;;;;10489507;28;20220;-74
2021/06/26 01:50:04;;;;;;;2.33;2.07;;;19.30;43.80;;;;;;10504490;28;20236;-75
2021/06/26 01:55:10;;;;;;;5.27;2.30;;;19.30;43.70;;;;;;10497894;28;20715;-75
2021/06/26 02:00:14;;;;;;;2.57;2.40;;;19.30;43.80;;;;;;10522875;28;20220;-75
2021/06/26 02:05:21;;;;;;;3.00;2.70;;;19.30;43.60;;;;;;10497342;28;20253;-75
2021/06/26 02:10:25;;;;;;;2.23;2.13;;;19.20;43.30;;;;;;10489458;28;20224;-75
2021/06/26 02:15:28;;;;;;;4.50;2.67;;;19.10;43.50;;;;;;10488628;28;20720;-75
2021/06/26 02:20:32;;;;;;;6.07;2.53;;;19.10;43.40;;;;;;10496559;28;20641;-75
2021/06/26 02:25:38;;;;;;;3.40;2.40;;;19.00;43.40;;;;;;10496661;28;20220;-75
2021/06/26 02:30:41;;;;;;;2.70;2.20;;;19.00;43.40;;;;;;10499374;28;20227;-75
2021/06/26 02:35:44;;;;;;;2.83;2.53;;;18.90;43.40;;;;;;10496084;28;20224;-75
2021/06/26 02:40:48;;;;;;;3.00;2.10;;;18.90;43.40;;;;;;10495869;28;20235;-74
2021/06/26 02:45:52;;;;;;;2.30;2.20;;;18.90;43.50;;;;;;10495958;28;20213;-75
2021/06/26 02:50:55;;;;;;;3.87;2.47;;;18.90;43.40;;;;;;10495536;28;20303;-75
2021/06/26 02:56:00;;;;;;;2.50;2.30;;;18.80;43.50;;;;;;10500665;28;20599;-75
2021/06/26 03:01:04;;;;;;;2.20;2.10;;;18.70;43.60;;;;;;10521306;28;20223;-76
2021/06/26 03:06:07;;;;;;;17.70;3.20;;;18.70;43.60;;;;;;10503386;28;20242;-75
2021/06/26 03:11:12;;;;;;;17.17;3.03;;;18.70;43.40;;;;;;10497548;28;20232;-76
2021/06/26 03:16:15;;;;;;;2.90;2.70;;;18.60;43.50;;;;;;10494689;28;20290;-75
2021/06/26 03:21:18;;;;;;;3.43;2.40;;;18.50;43.40;;;;;;10494359;28;20716;-76
2021/06/26 03:26:23;;;;;;;2.43;2.23;;;18.40;43.60;;;;;;10486298;28;20315;-75
2021/06/26 03:31:26;;;;;;;2.67;2.47;;;18.30;43.70;;;;;;10494017;28;20232;-75
2021/06/26 03:36:30;;;;;;;2.40;2.20;;;18.30;43.90;;;;;;10507919;28;20236;-74
2021/06/26 03:41:34;;;;;;;2.43;2.23;;;18.30;43.90;;;;;;10493535;28;20841;-76
2021/06/26 03:46:38;;;;;;;2.00;1.80;;;18.30;44.20;;;;;;10488007;28;20436;-75
2021/06/26 03:51:41;;;;;;;2.93;1.97;;;18.30;44.00;;;;;;10493158;28;20228;-75
2021/06/26 03:56:46;;;;;;;1.90;1.80;;;18.30;44.00;;;;;;10501508;28;20232;-75
2021/06/26 04:01:49;;;;;;;2.60;2.40;;;18.30;44.10;;;;;;10492802;28;20274;-75
2021/06/26 04:06:52;;;;;;;2.10;2.00;;;18.30;44.00;;;;;;10492583;28;20282;-75
2021/06/26 04:11:57;;;;;;;2.37;2.27;;;18.30;44.10;;;;;;10492070;28;20220;-75
2021/06/26 04:17:00;;;;;;;2.57;2.37;;;18.30;44.00;;;;;;10489675;28;20232;-76
2021/06/26 04:22:04;;;;;;;3.47;3.17;;;18.20;43.90;;;;;;10491597;28;20231;-76
2021/06/26 04:27:09;;;;;;;3.53;2.97;;;18.20;44.00;;;;;;10492545;28;20231;-75
2021/06/26 04:32:14;;;;;;;3.20;2.90;;;18.00;44.50;;;;;;10491720;28;20238;-75
2021/06/26 04:37:18;;;;;;;4.30;2.83;;;18.00;44.50;;;;;;10491368;28;20739;-74
2021/06/26 04:42:22;;;;;;;3.17;2.90;;;17.90;44.80;;;;;;10482869;28;20224;-76
2021/06/26 04:47:27;;;;;;;3.93;3.03;;;17.90;45.40;;;;;;10485694;28;20232;-75
2021/06/26 04:52:30;;;;;;;3.20;3.00;;;17.90;45.40;;;;;;10491877;28;20229;-74
2021/06/26 04:57:35;;;;;;;3.30;3.10;;;17.90;45.50;;;;;;10491626;28;20721;-76
2021/06/26 05:02:38;;;;;;;8.37;3.50;;;18.00;46.10;;;;;;10490847;28;20236;-75
2021/06/26 05:07:41;;;;;;;4.27;3.97;;;18.00;45.90;;;;;;10490370;28;20223;-75
2021/06/26 05:12:46;;;;;;;4.93;3.10;;;18.10;46.00;;;;;;10490512;28;20758;-76
2021/06/26 05:17:49;;;;;;;3.33;3.03;;;18.20;46.70;;;;;;10490013;28;20712;-75
2021/06/26 05:22:53;;;;;;;3.93;3.63;;;18.20;46.40;;;;;;10489339;28;20224;-75
2021/06/26 05:27:58;;;;;;;5.90;4.30;;;18.40;46.50;;;;;;10490462;28;20228;-75
2021/06/26 05:33:01;;;;;;;4.80;4.33;;;18.50;47.00;;;;;;10489997;28;20270;-74
2021/06/26 05:38:04;;;;;;;5.93;5.33;;;18.60;46.70;;;;;;10468512;28;20730;-77
2021/06/26 05:43:09;;;;;;;7.53;6.90;;;18.70;47.00;;;;;;10488117;28;20228;-74
2021/06/26 05:48:12;;;;;;;6.70;6.10;;;18.90;47.40;;;;;;10488397;28;20228;-75
2021/06/26 05:53:18;;;;;;;8.27;7.43;;;19.00;47.10;;;;;;10489152;28;20237;-75
2021/06/26 05:58:23;;;;;;;10.23;9.33;;;19.10;47.50;;;;;;10481296;28;20224;-75
2021/06/26 06:03:26;;;;;;;9.53;8.73;;;19.30;48.10;;;;;;10488981;28;20721;-74
2021/06/26 06:08:29;;;;;;;9.47;8.57;;;19.40;47.60;;;;;;10488673;28;20234;-74
2021/06/26 06:13:34;;;;;;;10.43;9.43;;;19.50;47.90;;;;;;10474509;28;20742;-74
2021/06/26 06:18:38;;;;;;;9.93;9.03;;;19.70;48.50;;;;;;10488734;28;20235;-74
2021/06/26 06:23:41;;;;;;;10.87;9.90;;;19.90;48.30;;;;;;10488586;28;20228;-74
2021/06/26 06:28:46;;;;;;;11.63;10.53;;;20.10;48.40;;;;;;10488766;28;20231;-74
2021/06/26 06:33:50;;;;;;;12.53;11.37;;;20.20;48.90;;;;;;10492534;28;20714;-74
2021/06/26 06:38:53;;;;;;;13.87;12.47;;;20.40;48.60;;;;;;10496930;28;20216;-73
2021/06/26 06:43:58;;;;;;;13.03;11.80;;;20.60;48.80;;;;;;10497761;28;20232;-74
2021/06/26 06:49:01;;;;;;;15.03;13.73;;;20.70;49.40;;;;;;10496211;28;20226;-74
2021/06/26 06:54:06;;;;;;;14.83;13.40;;;20.90;49.20;;;;;;10495823;28;20307;-74
2021/06/26 06:59:10;;;;;;;14.67;13.27;;;21.10;48.70;;;;;;10497390;28;20247;-74
2021/06/26 07:04:14;;;;;;;16.07;14.57;;;21.30;49.40;;;;;;10494074;28;20220;-74
2021/06/26 07:09:17;;;;;;;14.47;13.20;;;21.40;48.50;;;;;;10495190;28;20232;-74
2021/06/26 07:14:21;;;;;;;14.43;13.17;;;21.60;48.60;;;;;;10505591;28;20220;-74
2021/06/26 07:19:25;;;;;;;14.23;13.00;;;21.70;48.20;;;;;;10493222;28;20228;-74
2021/06/26 07:24:28;;;;;;;14.33;13.13;;;21.80;48.30;;;;;;10494873;28;20235;-74
2021/06/26 07:29:32;;;;;;;12.33;11.27;;;22.10;48.60;;;;;;10500158;28;20235;-74
2021/06/26 07:34:36;;;;;;;12.90;11.60;;;22.20;48.30;;;;;;10488904;28;20236;-77
2021/06/26 07:39:39;;;;;;;10.40;9.57;;;22.50;48.20;;;;;;10486658;28;20230;-75
2021/06/26 07:44:44;;;;;;;9.53;8.83;;;22.70;47.60;;;;;;10485120;28;20223;-76
2021/06/26 07:49:47;;;;;;;10.73;9.73;;;22.90;46.10;;;;;;10500116;28;20221;-76
2021/06/26 07:54:50;;;;;;;9.33;8.57;;;23.10;45.90;;;;;;10496682;28;20227;-76
2021/06/26 07:59:55;;;;;;;9.40;8.70;;;23.20;45.70;;;;;;10486555;28;20232;-75
2021/06/26 08:04:58;;;;;;;8.03;7.33;;;23.30;44.60;;;;;;10486484;28;20585;-75
2021/06/26 08:10:01;;;;;;;7.43;6.83;;;23.40;44.80;;;;;;10477504;28;20235;-77
2021/06/26 08:15:07;;;;;;;7.90;7.20;;;23.60;44.50;;;;;;10481332;28;20221;-76
2021/06/26 08:20:11;;;;;;;7.07;6.57;;;23.70;43.50;;;;;;10499392;28;20715;-75
2021/06/26 08:25:14;;;;;;;7.80;7.20;;;23.80;44.00;;;;;;10479603;28;20216;-76
2021/06/26 08:30:20;;;;;;;7.73;7.20;;;24.00;44.60;;;;;;10481311;28;20220;-76
2021/06/26 08:35:24;;;;;;;7.67;7.07;;;24.10;43.70;;;;;;10467087;28;20751;-76
2021/06/26 08:40:27;;;;;;;7.47;6.87;;;24.30;43.70;;;;;;10483423;28;20228;-77
2021/06/26 08:45:32;;;;;;;6.33;5.77;;;24.40;43.80;;;;;;10485519;28;20228;-77
2021/06/26 08:50:36;;;;;;;7.00;6.37;;;24.60;42.90;;;;;;10484868;28;20248;-76
2021/06/26 08:55:40;;;;;;;5.93;5.43;;;24.80;42.80;;;;;;10486694;28;20238;-78
2021/06/26 09:00:44;;;;;;;5.97;5.47;;;24.90;42.30;;;;;;10484689;28;20232;-77
2021/06/26 09:05:48;;;;;;;5.80;5.30;;;25.10;41.10;;;;;;10486322;28;20230;-76
2021/06/26 09:10:52;;;;;;;5.70;5.30;;;25.20;41.80;;;;;;10485580;28;20238;-77
2021/06/26 09:16:07;;;;;;;5.03;4.73;;;25.50;41.20;;;;;;10450365;28;20233;-78
2021/06/26 09:21:23;;;;;;;6.17;5.67;;;25.70;40.00;;;;;;10489758;28;20299;-77
2021/06/26 09:26:26;;;;;;;5.47;5.07;;;25.90;39.70;;;;;;10485128;28;20223;-77
2021/06/26 09:31:31;;;;;;;5.03;4.73;;;26.10;41.00;;;;;;10496726;28;20583;-77
2021/06/26 09:36:34;;;;;;;5.03;4.70;;;26.30;39.30;;;;;;10512638;28;20231;-77
2021/06/26 09:41:40;;;;;;;5.47;5.07;;;26.50;39.70;;;;;;10489802;28;20601;-77
2021/06/26 09:46:50;;;;;;;4.57;4.27;;;26.60;38.00;;;;;;10489964;28;20320;-76
2021/06/26 09:51:58;;;;;;;4.77;4.47;;;26.80;37.40;;;;;;10489895;28;20255;-76
2021/06/26 09:57:01;;;;;;;4.90;4.57;;;26.90;36.60;;;;;;10490515;28;20814;-77
2021/06/26 10:02:20;;;;;;;4.70;4.40;;;26.90;38.00;;;;;;10490218;28;20232;-76
2021/06/26 10:07:24;;;;;;;5.30;4.90;;;27.00;37.20;;;;;;10498624;28;20706;-76
2021/06/26 10:12:28;;;;;;;5.00;4.70;;;27.20;38.20;;;;;;10514665;28;20294;-76
2021/06/26 10:17:34;;;;;;;5.07;4.67;;;27.40;36.90;;;;;;10496848;28;20289;-76
2021/06/26 10:22:44;;;;;;;4.60;4.30;;;27.50;35.90;;;;;;10492065;28;20572;-76
2021/06/26 10:27:48;;;;;;;4.70;4.30;;;27.50;35.90;;;;;;10488588;28;20603;-76
2021/06/26 10:32:57;;;;;;;5.17;4.80;;;27.50;36.30;;;;;;10481496;28;20239;-76
2021/06/26 10:38:06;;;;;;;5.00;4.70;;;27.50;34.90;;;;;;10486254;28;20220;-75
2021/06/26 10:43:21;;;;;;;5.30;4.90;;;27.50;34.80;;;;;;10491025;28;20224;-75
2021/06/26 10:48:30;;;;;;;5.67;5.27;;;27.50;35.40;;;;;;10477280;28;20224;-75
2021/06/26 10:53:38;;;;;;;5.93;5.43;;;27.60;35.40;;;;;;10488392;28;20246;-75
2021/06/26 10:58:43;;;;;;;5.30;5.00;;;27.60;34.80;;;;;;10485524;28;20243;-75
2021/06/26 11:03:51;;;;;;;4.70;4.40;;;27.70;35.30;;;;;;10485162;28;20231;-75
2021/06/26 11:09:00;;;;;;;4.67;4.37;;;27.80;33.90;;;;;;10488539;28;20231;-75
2021/06/26 11:14:15;;;;;;;4.40;4.10;;;27.80;33.50;;;;;;10491185;28;20242;-75
2021/06/26 11:19:21;;;;;;;3.97;3.77;;;27.90;33.30;;;;;;10479147;28;20251;-75
2021/06/26 11:24:33;;;;;;;4.53;4.13;;;27.90;33.40;;;;;;10481233;28;20228;-75
2021/06/26 11:29:39;;;;;;;4.57;4.27;;;27.90;33.70;;;;;;10482645;28;20232;-74
2021/06/26 11:34:45;;;;;;;4.20;4.00;;;28.00;33.90;;;;;;10478064;28;20699;-75
2021/06/26 11:39:48;;;;;;;4.20;3.90;;;28.10;33.10;;;;;;10473439;28;20228;-77
2021/06/26 11:44:51;;;;;;;3.90;3.70;;;28.10;34.00;;;;;;10477421;28;20225;-75
2021/06/26 11:49:56;;;;;;;3.93;3.73;;;28.10;33.50;;;;;;10481797;28;20224;-76
2021/06/26 11:55:01;;;;;;;3.77;3.57;;;28.10;32.60;;;;;;10488450;28;20244;-76
2021/06/26 12:00:06;;;;;;;3.40;3.20;;;28.20;32.40;;;;;;10473948;28;20564;-76
2021/06/26 12:05:20;;;;;;;3.77;3.50;;;28.30;32.40;;;;;;10487557;28;20224;-77
2021/06/26 12:10:24;;;;;;;3.60;3.30;;;28.30;31.50;;;;;;10484087;28;20947;-76
2021/06/26 12:15:27;;;;;;;3.60;3.40;;;28.30;32.20;;;;;;10486706;28;20912;-75
2021/06/26 12:20:36;;;;;;;3.63;3.33;;;28.30;31.90;;;;;;10484726;28;20835;-75
2021/06/26 12:25:42;;;;;;;3.33;3.03;;;28.30;30.40;;;;;;10498605;22;20620;-73
2021/06/26 12:30:45;;;;;;;2.70;2.60;;;28.40;30.60;;;;;;10491549;28;20267;-73
2021/06/26 12:35:50;;;;;;;3.00;2.80;;;28.40;30.50;;;;;;10490825;28;20216;-74
2021/06/26 12:40:53;;;;;;;2.60;2.50;;;28.40;29.90;;;;;;10491489;28;20311;-71
2021/06/26 12:45:57;;;;;;;2.17;2.07;;;28.50;30.50;;;;;;10491737;28;20255;-73
2021/06/26 12:51:05;;;;;;;1.90;1.80;;;28.60;29.80;;;;;;10491549;28;20440;-73
2021/06/26 12:56:11;;;;;;;3.37;2.20;;;28.70;28.20;;;;;;10531486;27;20607;-74
2021/06/26 13:01:14;;;;;;;2.20;2.10;;;28.70;28.10;;;;;;10514413;28;20307;-72
2021/06/26 13:06:19;;;;;;;2.23;2.13;;;28.80;29.00;;;;;;10487627;28;20270;-74
2021/06/26 13:11:30;;;;;;;2.00;1.90;;;28.90;28.40;;;;;;10491252;28;20235;-73
2021/06/26 13:16:35;;;;;;;1.83;1.73;;;28.90;27.30;;;;;;10490886;28;20232;-74
2021/06/26 13:21:49;;;;;;;2.30;2.20;;;29.00;28.70;;;;;;10490555;28;20311;-74
2021/06/26 13:26:52;;;;;;;1.90;1.80;;;29.00;27.50;;;;;;10489496;28;20251;-75
2021/06/26 13:31:56;;;;;;;2.10;2.00;;;29.10;28.50;;;;;;10489612;28;20228;-75
2021/06/26 13:37:07;;;;;;;2.10;2.00;;;29.20;28.10;;;;;;10490493;28;20754;-75
2021/06/26 13:42:10;;;;;;;2.47;2.37;;;29.20;27.10;;;;;;10488093;28;20252;-75
2021/06/26 13:47:14;;;;;;;2.37;2.27;;;29.30;27.90;;;;;;10488690;28;20278;-74
2021/06/26 13:52:18;;;;;;;2.40;2.30;;;29.30;28.20;;;;;;10490272;28;20239;-74
2021/06/26 13:57:22;;;;;;;3.00;2.73;;;29.30;27.20;;;;;;10489659;28;20267;-74
2021/06/26 14:02:25;;;;;;;2.40;2.30;;;29.30;27.80;;;;;;10490019;28;20761;-74
2021/06/26 14:07:30;;;;;;;2.37;2.27;;;29.30;27.80;;;;;;10489704;28;20293;-74
2021/06/26 14:12:34;;;;;;;2.20;2.10;;;29.30;27.00;;;;;;10461975;28;20228;-74
2021/06/26 14:17:37;;;;;;;2.33;2.23;;;29.30;27.20;;;;;;10463100;28;20715;-75
2021/06/26 14:22:42;;;;;;;2.37;2.03;;;29.20;26.90;;;;;;10463840;28;20696;-74
2021/06/26 14:27:46;;;;;;;2.00;1.90;;;29.30;26.20;;;;;;10461474;28;20225;-74
2021/06/26 14:32:50;;;;;;;1.90;1.80;;;29.30;26.90;;;;;;10463562;28;20216;-74
2021/06/26 14:37:55;;;;;;;1.90;1.80;;;29.30;26.70;;;;;;10462007;28;20216;-74
2021/06/26 14:42:58;;;;;;;1.80;1.70;;;29.30;26.40;;;;;;10463152;28;20217;-73
2021/06/26 14:48:02;;;;;;;1.90;1.80;;;29.30;26.50;;;;;;10459368;28;20222;-74
2021/06/26 14:53:07;;;;;;;2.10;2.00;;;29.40;26.90;;;;;;10464882;28;20232;-73
2021/06/26 14:58:10;;;;;;;2.20;2.10;;;29.40;26.60;;;;;;10468673;28;20315;-74
2021/06/26 15:03:13;;;;;;;2.20;2.10;;;29.50;27.00;;;;;;10473781;28;20220;-73
2021/06/26 15:08:18;;;;;;;2.20;2.00;;;29.50;26.40;;;;;;10471263;28;20236;-74
2021/06/26 15:13:23;;;;;;;2.20;2.10;;;29.50;25.90;;;;;;10466072;28;20228;-74
2021/06/26 15:18:28;;;;;;;2.37;2.20;;;29.50;26.60;;;;;;10471152;28;20232;-74
2021/06/26 15:23:33;;;;;;;2.07;1.97;;;29.50;26.40;;;;;;10471660;28;21052;-74
2021/06/26 15:28:37;;;;;;;3.10;2.17;;;29.50;25.90;;;;;;10475744;28;20720;-73
2021/06/26 15:33:41;;;;;;;2.10;2.00;;;29.50;26.10;;;;;;10464200;28;20224;-74
2021/06/26 15:38:45;;;;;;;2.50;2.40;;;29.50;26.20;;;;;;10471625;28;20252;-73
2021/06/26 15:43:49;;;;;;;2.10;2.00;;;29.50;25.60;;;;;;10472730;28;20222;-73
2021/06/26 15:48:52;;;;;;;3.27;2.60;;;29.50;26.00;;;;;;10467137;28;20260;-73
2021/06/26 15:53:57;;;;;;;2.30;2.20;;;29.50;26.00;;;;;;10470742;28;20223;-72
2021/06/26 15:59:01;;;;;;;2.20;2.10;;;29.50;25.50;;;;;;10467000;28;20814;-73
2021/06/26 16:04:05;;;;;;;2.50;2.40;;;29.50;26.00;;;;;;10469073;28;20231;-73
2021/06/26 16:09:09;;;;;;;2.57;2.43;;;29.60;26.10;;;;;;10463616;28;20235;-73
2021/06/26 16:14:12;;;;;;;2.50;2.30;;;29.50;25.50;;;;;;10468453;28;20707;-73
2021/06/26 16:19:16;;;;;;;2.53;2.33;;;29.50;25.80;;;;;;10468090;28;20247;-73
2021/06/26 16:24:21;;;;;;;2.70;2.50;;;29.50;25.90;;;;;;10467398;28;20306;-73
2021/06/26 16:29:24;;;;;;;2.40;2.30;;;29.40;25.70;;;;;;10466815;28;20712;-73
2021/06/26 16:34:27;;;;;;;2.37;2.27;;;29.40;25.90;;;;;;10467196;28;20263;-73
2021/06/26 16:39:32;;;;;;;2.50;2.40;;;29.40;25.80;;;;;;10469679;28;20765;-73
2021/06/26 16:44:36;;;;;;;2.60;2.50;;;29.40;25.60;;;;;;10466893;28;20232;-73
2021/06/26 16:49:39;;;;;;;2.50;2.40;;;29.50;25.90;;;;;;10464138;28;20243;-73
2021/06/26 16:54:43;;;;;;;2.50;2.40;;;29.50;26.00;;;;;;10469446;28;20676;-73
2021/06/26 16:59:47;;;;;;;2.30;2.20;;;29.50;25.30;;;;;;10467132;28;20298;-73
2021/06/26 17:04:50;;;;;;;2.53;2.40;;;29.50;25.70;;;;;;10464906;28;20225;-73
2021/06/26 17:09:54;;;;;;;2.30;2.20;;;29.50;25.80;;;;;;10467497;28;20217;-73
2021/06/26 17:14:58;;;;;;;2.23;2.10;;;29.50;25.60;;;;;;10467751;28;20232;-73
2021/06/26 17:20:01;;;;;;;2.20;2.10;;;29.40;25.90;;;;;;10463838;28;20608;-73
2021/06/26 17:25:08;;;;;;;2.30;2.20;;;29.40;25.90;;;;;;10467996;28;20709;-73
2021/06/26 17:30:12;;;;;;;2.47;2.27;;;29.40;25.80;;;;;;10463598;28;20225;-73
2021/06/26 17:35:16;;;;;;;2.53;2.40;;;29.30;26.10;;;;;;10466567;28;20227;-73
2021/06/26 17:40:21;;;;;;;2.40;2.30;;;29.40;26.10;;;;;;10463015;28;20235;-73
2021/06/26 17:45:24;;;;;;;2.80;2.60;;;29.30;26.30;;;;;;10464484;28;20237;-73
2021/06/26 17:50:28;;;;;;;2.40;2.30;;;29.30;26.20;;;;;;10455727;28;20281;-73
2021/06/26 17:55:34;;;;;;;2.40;2.30;;;29.30;26.10;;;;;;10458704;28;20282;-73
2021/06/26 18:00:57;;;;;;;2.47;2.37;;;29.20;26.10;;;;;;10458160;28;20236;-73
2021/06/26 18:06:01;;;;;;;2.37;2.27;;;29.20;26.30;;;;;;10463607;28;20228;-74
2021/06/26 18:11:06;;;;;;;2.23;2.13;;;29.20;26.40;;;;;;10466674;28;20561;-72
2021/06/26 18:16:09;;;;;;;3.20;2.47;;;29.10;26.00;;;;;;10464551;28;20248;-72
2021/06/26 18:21:12;;;;;;;2.20;2.10;;;29.10;26.20;;;;;;10468130;28;20320;-73
2021/06/26 18:26:23;;;;;;;2.50;2.40;;;29.10;26.10;;;;;;10484476;22;20308;-75
2021/06/26 18:31:29;;;;;;;2.40;2.30;;;29.10;26.30;;;;;;10466613;28;20605;-75
2021/06/26 18:36:33;;;;;;;2.10;2.00;;;29.00;26.70;;;;;;10475084;28;20232;-75
2021/06/26 18:41:37;;;;;;;2.70;2.50;;;28.90;26.60;;;;;;10468989;28;20233;-75
2021/06/26 18:46:41;;;;;;;2.50;2.30;;;28.80;26.80;;;;;;10471237;28;20224;-75
2021/06/26 18:51:44;;;;;;;2.37;2.17;;;28.70;26.80;;;;;;10472117;28;20216;-76
2021/06/26 18:56:48;;;;;;;2.30;2.20;;;28.60;27.00;;;;;;10472525;28;20220;-78
2021/06/26 19:01:51;;;;;;;2.30;2.20;;;28.50;27.20;;;;;;10472196;28;20246;-77
2021/06/26 19:06:56;;;;;;;2.70;2.50;;;28.30;27.30;;;;;;10466810;28;20500;-77
2021/06/26 19:12:01;;;;;;;2.47;2.27;;;28.20;27.80;;;;;;10462972;28;20249;-77
2021/06/26 19:17:05;;;;;;;2.80;2.60;;;28.10;28.30;;;;;;10470451;28;20707;-77
2021/06/26 19:22:09;;;;;;;2.40;2.30;;;27.90;28.60;;;;;;10469185;28;20585;-77
2021/06/26 19:27:15;;;;;;;2.60;2.50;;;27.80;28.40;;;;;;10465531;28;20225;-77
2021/06/26 19:32:18;;;;;;;2.97;2.60;;;27.60;28.80;;;;;;10464804;28;20221;-76
2021/06/26 19:37:22;;;;;;;2.60;2.40;;;27.50;28.70;;;;;;10468795;28;20237;-77
2021/06/26 19:42:26;;;;;;;2.60;2.50;;;27.30;28.50;;;;;;10469940;28;20232;-76
2021/06/26 19:47:30;;;;;;;2.60;2.50;;;27.20;28.80;;;;;;10468118;28;20236;-76
2021/06/26 19:52:33;;;;;;;2.93;2.70;;;26.90;28.70;;;;;;10473286;28;20228;-76
2021/06/26 19:57:37;;;;;;;2.80;2.60;;;26.80;29.00;;;;;;10465709;28;20232;-76
2021/06/26 20:02:41;;;;;;;2.90;2.70;;;26.60;29.50;;;;;;10473284;28;20315;-76
2021/06/26 20:07:45;;;;;;;3.03;2.70;;;26.50;29.50;;;;;;10460405;28;20231;-76
2021/06/26 20:12:51;;;;;;;3.30;3.00;;;26.40;29.40;;;;;;10458470;28;20228;-76
2021/06/26 20:17:54;;;;;;;3.23;2.90;;;26.20;29.30;;;;;;10466285;28;20271;-76
2021/06/26 20:22:57;;;;;;;2.83;2.63;;;26.10;29.20;;;;;;10466278;28;20216;-76
2021/06/26 20:28:03;;;;;;;2.80;2.60;;;26.00;29.60;;;;;;10466572;28;20298;-76
2021/06/26 20:33:07;;;;;;;3.00;2.77;;;25.80;30.00;;;;;;10462649;28;21013;-76
2021/06/26 20:38:10;;;;;;;2.60;2.40;;;25.70;29.90;;;;;;10454076;28;20228;-75
2021/06/26 20:43:15;;;;;;;2.80;2.60;;;25.60;29.80;;;;;;10473610;28;20224;-77
2021/06/26 20:48:22;;;;;;;2.93;2.73;;;25.60;30.40;;;;;;10464754;28;20233;-77
2021/06/26 20:53:25;;;;;;;2.73;2.53;;;25.40;30.80;;;;;;10456862;28;20246;-77
2021/06/26 20:58:30;;;;;;;2.80;2.60;;;25.40;30.50;;;;;;10470369;28;20232;-76
2021/06/26 21:03:33;;;;;;;2.90;2.70;;;25.30;31.00;;;;;;10473077;28;20220;-76
2021/06/26 21:08:36;;;;;;;2.70;2.60;;;25.20;30.60;;;;;;10463071;28;20228;-76
2021/06/26 21:13:41;;;;;;;3.40;3.10;;;25.10;30.90;;;;;;10465513;28;20950;-76
2021/06/26 21:18:45;;;;;;;3.10;2.90;;;25.00;31.50;;;;;;10466336;28;20228;-75
2021/06/26 21:23:48;;;;;;;2.60;2.50;;;24.90;31.10;;;;;;10472925;28;20228;-76
2021/06/26 21:28:54;;;;;;;3.10;2.90;;;24.70;31.10;;;;;;10484328;28;20228;-76
2021/06/26 21:33:57;;;;;;;3.80;3.07;;;24.60;31.50;;;;;;10473361;28;20213;-76
2021/06/26 21:39:01;;;;;;;3.47;3.03;;;24.40;31.60;;;;;;10470622;28;20225;-76
2021/06/26 21:44:06;;;;;;;5.20;3.30;;;24.30;31.70;;;;;;10460339;28;20219;-76
2021/06/26 21:49:09;;;;;;;3.20;3.00;;;24.20;32.40;;;;;;10483695;28;20235;-76
2021/06/26 21:54:13;;;;;;;3.17;2.67;;;24.10;32.20;;;;;;10471840;28;20235;-76
2021/06/26 21:59:17;;;;;;;3.20;2.90;;;24.00;32.30;;;;;;10470597;28;20699;-76
2021/06/26 22:04:21;;;;;;;3.47;3.27;;;23.90;32.90;;;;;;10469941;28;20600;-76
2021/06/26 22:09:24;;;;;;;3.37;2.87;;;23.80;33.30;;;;;;10482883;28;20240;-76
2021/06/26 22:14:29;;;;;;;3.63;2.90;;;23.70;32.60;;;;;;10465599;28;20228;-76
2021/06/26 22:19:32;;;;;;;3.80;3.50;;;23.60;33.20;;;;;;10467566;28;20899;-76
2021/06/26 22:24:35;;;;;;;2.90;2.70;;;23.60;33.10;;;;;;10476454;28;20232;-76
2021/06/26 22:29:40;;;;;;;3.50;3.30;;;23.50;33.00;;;;;;10474232;28;20795;-76
2021/06/26 22:34:43;;;;;;;3.30;3.10;;;23.40;33.60;;;;;;10467628;28;20232;-76
2021/06/26 22:39:46;;;;;;;3.67;3.30;;;23.30;33.40;;;;;;10477190;28;20223;-76
2021/06/26 22:44:51;;;;;;;3.53;3.33;;;23.30;33.60;;;;;;10478990;28;20220;-76
2021/06/26 22:49:54;;;;;;;3.30;2.70;;;23.30;34.20;;;;;;10478144;28;20216;-76
2021/06/26 22:54:57;;;;;;;3.07;2.87;;;23.20;33.70;;;;;;10484351;28;20219;-76
2021/06/26 23:00:02;;;;;;;4.83;3.50;;;23.10;33.70;;;;;;10482651;28;20232;-76
2021/06/26 23:05:07;;;;;;;3.70;3.50;;;23.10;34.50;;;;;;10478128;28;20215;-76
2021/06/26 23:10:13;;;;;;;3.80;3.50;;;23.00;34.30;;;;;;10477870;28;20217;-76
2021/06/26 23:15:19;;;;;;;3.60;3.40;;;22.90;34.40;;;;;;10490756;28;20863;-76
2021/06/26 23:20:24;;;;;;;3.80;3.50;;;22.80;34.80;;;;;;10482617;28;20237;-76
2021/06/26 23:25:27;;;;;;;3.27;3.03;;;22.80;34.60;;;;;;10476413;28;20239;-76
2021/06/26 23:30:32;;;;;;;4.10;3.30;;;22.70;34.30;;;;;;10479193;28;20236;-76
2021/06/26 23:35:36;;;;;;;3.67;3.37;;;22.60;34.70;;;;;;10484693;28;20579;-76
2021/06/26 23:40:46;;;;;;;4.03;3.60;;;22.60;34.50;;;;;;10475721;28;20236;-76
2021/06/26 23:45:53;;;;;;;3.33;3.00;;;22.50;35.10;;;;;;10484854;28;20220;-76
2021/06/26 23:50:56;;;;;;;3.73;3.43;;;22.40;34.90;;;;;;10481767;28;20216;-76
2021/06/26 23:56:16;;;;;;;3.60;3.40;;;22.20;34.30;;;;;;10489179;28;20221;-76
